createdAt,value
2022-08-17T00:02:25.994Z,101008.06
2022-08-17T00:04:54.297Z,101009.19
2022-08-17T00:07:21.284Z,101011.44
2022-08-17T00:09:47.863Z,101013.09
2022-08-17T00:14:55.052Z,101002.88
2022-08-17T00:17:21.707Z,101002.09
2022-08-17T00:19:48.216Z,100998.19
2022-08-17T00:22:32.650Z,101003.69
2022-08-17T00:28:48.429Z,100989.13
2022-08-17T00:31:18.664Z,100992.34
2022-08-17T00:33:45.599Z,100990.28
2022-08-17T00:36:13.848Z,100984.44
2022-08-17T00:38:40.425Z,100978.94
2022-08-17T00:41:11.856Z,100981.69
2022-08-17T00:43:44.178Z,100978.13
2022-08-17T00:46:16.584Z,100977.31
2022-08-17T00:48:44.131Z,100985.25
2022-08-17T00:51:23.485Z,100975.38
2022-08-17T00:53:54.416Z,100976.19
2022-08-17T00:56:29.887Z,100969.88
2022-08-17T00:58:57.293Z,100963.56
2022-08-17T01:01:24.987Z,100961.94
2022-08-17T01:03:54.261Z,100977.31
2022-08-17T01:06:27.781Z,101029.59
2022-08-17T01:08:57.953Z,101056.75
2022-08-17T01:11:24.856Z,101065.00
2022-08-17T01:13:51.502Z,101063.41
2022-08-17T01:16:20.364Z,101076.00
2022-08-17T01:18:49.266Z,101078.28
2022-08-17T01:21:29.437Z,101087.03
2022-08-17T01:23:56.158Z,101103.84
2022-08-17T01:26:23.278Z,101109.03
2022-08-17T01:28:53.700Z,101123.09
2022-08-17T01:31:24.170Z,101108.56
2022-08-17T01:33:50.967Z,101109.34
2022-08-17T01:36:17.756Z,101096.72
2022-08-17T01:38:44.262Z,101097.53
2022-08-17T01:41:14.476Z,101087.34
2022-08-17T01:43:49.521Z,101078.28
2022-08-17T01:46:31.009Z,101086.53
2022-08-17T01:48:58.342Z,101083.78
2022-08-17T01:51:32.826Z,101091.22
2022-08-17T01:54:05.072Z,101082.97
2022-08-17T01:56:33.726Z,101092.03
2022-08-17T01:59:00.320Z,101079.72
2022-08-17T02:01:30.659Z,101072.28
2022-08-17T02:04:00.426Z,101075.84
2022-08-17T02:06:52.721Z,101071.16
2022-08-17T02:09:22.345Z,101068.41
2022-08-17T02:11:50.808Z,101061.28
2022-08-17T02:14:18.053Z,101049.44
2022-08-17T02:16:44.543Z,101027.94
2022-08-17T02:19:15.674Z,101026.34
2022-08-17T02:21:45.523Z,101022.78
2022-08-17T02:24:17.802Z,101029.38
2022-08-17T02:27:04.793Z,101023.88
2022-08-17T02:29:31.528Z,101029.38
2022-08-17T02:31:58.616Z,101048.66
2022-08-17T02:34:26.305Z,101038.44
2022-08-17T02:36:53.403Z,101048.66
2022-08-17T02:39:20.191Z,101050.59
2022-08-17T02:41:46.763Z,101045.91
2022-08-17T02:44:13.602Z,101057.69
2022-08-17T02:47:00.655Z,101058.84
2022-08-17T02:49:27.122Z,101063.84
2022-08-17T02:51:53.625Z,101057.53
2022-08-17T02:54:40.076Z,101056.91
2022-08-17T02:57:06.592Z,101047.00
2022-08-17T02:59:33.082Z,101053.34
2022-08-17T03:01:59.653Z,101064.34
2022-08-17T03:04:26.269Z,101057.19
2022-08-17T03:06:52.809Z,101050.91
2022-08-17T03:09:19.380Z,101057.53
2022-08-17T03:11:45.867Z,101043.78
2022-08-17T03:14:13.126Z,101038.28
2022-08-17T03:16:41.411Z,101036.66
2022-08-17T03:19:08.962Z,101035.03
2022-08-17T03:21:35.560Z,101026.47
2022-08-17T03:24:02.479Z,101042.19
2022-08-17T03:26:35.430Z,101031.16
2022-08-17T03:29:01.923Z,101031.16
2022-08-17T03:31:28.493Z,101022.91
2022-08-17T03:33:55.136Z,101020.47
2022-08-17T03:36:21.616Z,101022.91
2022-08-17T03:38:48.099Z,101025.16
2022-08-17T03:41:17.704Z,101036.97
2022-08-17T03:43:44.203Z,101035.03
2022-08-17T03:46:48.984Z,101041.66
2022-08-17T03:49:39.815Z,101030.66
2022-08-17T03:52:24.809Z,101033.41
2022-08-17T03:55:09.797Z,101017.25
2022-08-17T03:57:37.067Z,101008.66
2022-08-17T04:00:04.920Z,101018.06
2022-08-17T04:02:33.721Z,101013.69
2022-08-17T04:05:00.487Z,101018.38
2022-08-17T04:07:29.869Z,101017.25
2022-08-17T04:09:58.087Z,101015.63
2022-08-17T04:12:26.331Z,101018.69
2022-08-17T04:14:54.972Z,101012.69
2022-08-17T04:17:27.823Z,101018.69
2022-08-17T04:19:55.339Z,101012.06
2022-08-17T04:22:32.089Z,101019.19
2022-08-17T04:25:01.774Z,100999.94
2022-08-17T04:27:28.274Z,100998.31
2022-08-17T04:29:56.070Z,101000.25
2022-08-17T04:33:00.608Z,100996.69
2022-08-17T04:35:10.126Z,100995.56
2022-08-17T04:37:36.643Z,100991.19
2022-08-17T04:40:22.494Z,100993.94
2022-08-17T04:43:05.600Z,100993.94
2022-08-17T04:45:32.693Z,100994.44
2022-08-17T04:48:00.968Z,100996.38
2022-08-17T04:50:27.736Z,100992.00
2022-08-17T04:52:54.315Z,100984.91
2022-08-17T04:55:21.198Z,100989.25
2022-08-17T04:57:47.963Z,100984.56
2022-08-17T05:00:15.045Z,100984.56
2022-08-17T05:02:49.788Z,100981.34
2022-08-17T05:05:22.135Z,100992.00
2022-08-17T05:07:52.456Z,100993.63
2022-08-17T05:10:19.807Z,100992.81
2022-08-17T05:12:46.329Z,100996.69
2022-08-17T05:15:17.269Z,101001.69
2022-08-17T05:17:46.926Z,100998.66
2022-08-17T05:20:13.476Z,101000.09
2022-08-17T05:22:53.485Z,100997.84
2022-08-17T05:25:28.524Z,101004.94
2022-08-17T05:28:10.932Z,101014.66
2022-08-17T05:30:40.122Z,101020.66
2022-08-17T05:33:10.197Z,101036.00
2022-08-17T05:35:39.559Z,101025.34
2022-08-17T05:38:07.936Z,101029.69
2022-08-17T05:40:36.312Z,101036.34
2022-08-17T05:43:10.998Z,101040.69
2022-08-17T05:45:55.191Z,101056.41
2022-08-17T05:48:39.706Z,101059.16
2022-08-17T05:51:25.683Z,101066.91
2022-08-17T05:54:01.200Z,101064.94
2022-08-17T05:56:49.624Z,101064.16
2022-08-17T06:00:01.059Z,101055.59
2022-08-17T06:02:50.792Z,101062.19
2022-08-17T06:05:23.574Z,101065.78
2022-08-17T06:07:54.300Z,101058.66
2022-08-17T06:10:43.635Z,101052.69
2022-08-17T06:13:41.239Z,101053.16
2022-08-17T06:16:33.656Z,101048.78
2022-08-17T06:19:31.862Z,101059.78
2022-08-17T06:22:07.080Z,101063.34
2022-08-17T06:24:51.386Z,101064.94
2022-08-17T06:27:41.810Z,101063.66
2022-08-17T06:30:14.084Z,101062.88
2022-08-17T06:32:44.772Z,101063.34
2022-08-17T06:35:14.036Z,101062.19
2022-08-17T06:37:51.895Z,101067.22
2022-08-17T06:40:37.466Z,101073.53
2022-08-17T06:43:22.641Z,101072.72
2022-08-17T06:46:01.693Z,101079.03
2022-08-17T06:48:42.652Z,101073.88
2022-08-17T06:51:23.864Z,101085.97
2022-08-17T06:54:07.014Z,101086.47
2022-08-17T06:56:53.248Z,101094.41
2022-08-17T06:59:26.649Z,101108.16
2022-08-17T07:02:18.896Z,101106.88
2022-08-17T07:04:55.544Z,101118.97
2022-08-17T07:10:27.716Z,101106.53
2022-08-17T07:13:14.559Z,101104.91
2022-08-17T07:15:42.975Z,101099.09
2022-08-17T07:18:12.148Z,101104.59
2022-08-17T07:20:43.663Z,101108.47
2022-08-17T07:23:40.055Z,101109.28
2022-08-17T07:26:09.041Z,101107.66
2022-08-17T07:28:36.577Z,101104.59
2022-08-17T07:31:04.696Z,101111.22
2022-08-17T07:33:34.574Z,101116.72
2022-08-17T07:36:02.611Z,101115.13
2022-08-17T07:38:30.820Z,101109.63
2022-08-17T07:40:57.926Z,101112.38
2022-08-17T07:43:26.046Z,101109.63
2022-08-17T07:46:31.557Z,101119.47
2022-08-17T07:49:18.882Z,101118.34
2022-08-17T07:51:48.319Z,101123.03
2022-08-17T07:54:15.029Z,101122.69
2022-08-17T07:56:47.040Z,101124.97
2022-08-17T07:59:27.231Z,101120.63
2022-08-17T08:02:05.405Z,101128.03
2022-08-17T08:04:59.622Z,101113.16
2022-08-17T08:07:32.075Z,101116.72
2022-08-17T08:10:13.060Z,101108.47
2022-08-17T08:12:45.511Z,101113.97
2022-08-17T08:15:20.287Z,101122.84
2022-08-17T08:17:48.945Z,101125.28
2022-08-17T08:20:40.823Z,101128.53
2022-08-17T08:23:29.469Z,101144.22
2022-08-17T08:29:22.651Z,101181.28
2022-08-17T08:31:56.411Z,101193.41
2022-08-17T08:35:01.628Z,101187.09
2022-08-17T08:37:55.907Z,101195.03
2022-08-17T08:40:31.971Z,101190.81
2022-08-17T08:43:22.983Z,101188.41
2022-08-17T08:46:06.221Z,101194.72
2022-08-17T08:48:58.630Z,101199.69
2022-08-17T08:51:55.602Z,101189.53
2022-08-17T08:54:37.226Z,101182.41
2022-08-17T08:57:32.893Z,101183.19
2022-08-17T09:00:14.704Z,101180.44
2022-08-17T09:03:07.363Z,101174.16
2022-08-17T09:08:44.137Z,101179.66
2022-08-17T09:11:22.439Z,101190.66
2022-08-17T09:17:12.085Z,101187.09
2022-08-17T09:20:05.924Z,101202.78
2022-08-17T09:22:44.927Z,101200.03
2022-08-17T09:25:21.689Z,101210.22
2022-08-17T09:27:56.509Z,101208.63
2022-08-17T09:30:36.218Z,101207.78
2022-08-17T09:33:07.768Z,101219.59
2022-08-17T09:35:44.421Z,101204.72
2022-08-17T09:38:35.566Z,101209.72
2022-08-17T09:41:25.306Z,101207.47
2022-08-17T09:44:22.794Z,101206.97
2022-08-17T09:46:50.292Z,101211.38
2022-08-17T09:49:34.487Z,101195.97
2022-08-17T09:52:14.659Z,101213.59
2022-08-17T09:54:52.499Z,101205.34
2022-08-17T09:57:47.430Z,101195.50
2022-08-17T10:00:17.189Z,101195.16
2022-08-17T10:03:02.725Z,101197.91
2022-08-17T10:05:57.197Z,101195.97
2022-08-17T10:08:32.660Z,101195.16
2022-08-17T10:11:11.298Z,101200.19
2022-08-17T10:14:36.018Z,101206.50
2022-08-17T10:17:09.800Z,101206.16
2022-08-17T10:19:48.753Z,101202.59
2022-08-17T10:23:06.511Z,101210.03
2022-08-17T10:26:12.957Z,101210.38
2022-08-17T10:28:51.315Z,101202.13
2022-08-17T10:31:34.830Z,101205.34
2022-08-17T10:34:29.498Z,101208.91
2022-08-17T10:37:09.786Z,101214.41
2022-08-17T10:39:57.330Z,101213.13
2022-08-17T10:42:37.541Z,101206.78
2022-08-17T10:45:21.906Z,101210.38
2022-08-17T10:48:06.051Z,101217.78
2022-08-17T10:50:46.202Z,101211.19
2022-08-17T10:53:32.651Z,101208.44
2022-08-17T10:56:22.490Z,101207.63
2022-08-17T10:58:58.254Z,101204.88
2022-08-17T11:01:37.943Z,101207.63
2022-08-17T11:04:21.333Z,101193.03
2022-08-17T11:07:12.487Z,101193.88
2022-08-17T11:10:06.935Z,101202.13
2022-08-17T11:16:13.682Z,101195.78
2022-08-17T11:19:10.179Z,101205.19
2022-08-17T11:22:00.120Z,101205.50
2022-08-17T11:24:39.864Z,101222.47
2022-08-17T11:27:28.713Z,101218.63
2022-08-17T11:30:01.916Z,101223.28
2022-08-17T11:32:34.527Z,101228.94
2022-08-17T11:35:22.029Z,101242.06
2022-08-17T11:38:17.940Z,101231.88
2022-08-17T11:40:50.200Z,101238.50
2022-08-17T11:43:49.121Z,101242.06
2022-08-17T11:46:55.406Z,101238.50
2022-08-17T11:52:46.990Z,101223.63
2022-08-17T11:55:38.201Z,101228.31
2022-08-17T11:58:37.408Z,101219.25
2022-08-17T12:01:28.927Z,101216.00
2022-08-17T12:04:24.145Z,101214.88
2022-08-17T12:07:10.326Z,101212.63
2022-08-17T12:09:45.689Z,101204.69
2022-08-17T12:12:22.602Z,101212.94
2022-08-17T12:15:11.455Z,101226.69
2022-08-17T12:20:30.079Z,101212.13
2022-08-17T12:23:08.695Z,101212.63
2022-08-17T12:25:47.665Z,101213.75
2022-08-17T12:31:12.724Z,101205.50
2022-08-17T12:33:44.413Z,101199.19
2022-08-17T12:36:15.197Z,101189.00
2022-08-17T12:41:43.381Z,101198.38
2022-08-17T12:44:16.811Z,101202.75
2022-08-17T12:47:07.645Z,101203.56
2022-08-17T12:49:37.248Z,101196.44
2022-08-17T12:52:36.371Z,101207.44
2022-08-17T12:55:06.902Z,101198.69
2022-08-17T12:57:36.369Z,101197.56
2022-08-17T13:00:10.190Z,101203.06
2022-08-17T13:02:53.610Z,101199.19
2022-08-17T13:05:30.123Z,101201.94
2022-08-17T13:07:59.847Z,101185.47
2022-08-17T13:10:33.126Z,101182.88
2022-08-17T13:13:06.137Z,101191.94
2022-08-17T13:15:44.872Z,101189.19
2022-08-17T13:18:33.823Z,101184.78
2022-08-17T13:21:01.048Z,101191.13
2022-08-17T13:23:29.594Z,101187.53
2022-08-17T13:26:06.050Z,101189.19
2022-08-17T13:28:36.086Z,101185.63
2022-08-17T13:31:27.793Z,101177.38
2022-08-17T13:34:13.747Z,101179.81
2022-08-17T13:39:25.586Z,101188.03
2022-08-17T13:41:55.404Z,101186.09
2022-08-17T13:44:37.985Z,101180.59
2022-08-17T13:50:21.880Z,101186.09
2022-08-17T13:52:52.001Z,101180.28
2022-08-17T13:55:22.672Z,101177.53
2022-08-17T13:58:04.131Z,101180.28
2022-08-17T14:00:36.346Z,101185.78
2022-08-17T14:03:04.931Z,101195.66
2022-08-17T14:05:32.482Z,101193.72
2022-08-17T14:08:06.396Z,101193.72
2022-08-17T14:10:36.335Z,101187.41
2022-08-17T14:13:03.877Z,101192.59
2022-08-17T14:15:56.154Z,101177.22
2022-08-17T14:18:55.498Z,101169.78
2022-08-17T14:21:08.287Z,101173.34
2022-08-17T14:23:35.257Z,101170.59
2022-08-17T14:26:02.205Z,101174.94
2022-08-17T14:28:28.828Z,101169.44
2022-08-17T14:30:55.494Z,101184.03
2022-08-17T14:33:24.561Z,101179.66
2022-08-17T14:35:53.510Z,101173.03
2022-08-17T14:38:20.506Z,101180.44
2022-08-17T14:40:48.075Z,101173.84
2022-08-17T14:43:15.843Z,101191.97
2022-08-17T14:45:43.287Z,101182.91
2022-08-17T14:48:10.473Z,101190.34
2022-08-17T14:50:41.066Z,101197.47
2022-08-17T14:53:11.381Z,101195.50
2022-08-17T14:55:40.486Z,101194.72
2022-08-17T14:58:09.057Z,101191.16
2022-08-17T15:00:36.368Z,101201.00
2022-08-17T15:03:03.346Z,101202.97
2022-08-17T15:05:34.117Z,101205.72
2022-08-17T15:08:02.054Z,101201.00
2022-08-17T15:10:30.171Z,101193.91
2022-08-17T15:12:57.356Z,101201.00
2022-08-17T15:15:24.989Z,101196.66
2022-08-17T15:17:51.749Z,101197.47
2022-08-17T15:20:24.753Z,101206.84
2022-08-17T15:22:55.183Z,101208.47
2022-08-17T15:25:23.377Z,101212.81
2022-08-17T15:27:50.176Z,101207.31
2022-08-17T15:30:17.632Z,101210.06
2022-08-17T15:32:51.363Z,101209.25
2022-08-17T15:35:27.311Z,101205.38
2022-08-17T15:38:03.515Z,101205.72
2022-08-17T15:40:36.925Z,101218.31
2022-08-17T15:43:12.854Z,101204.56
2022-08-17T15:45:40.062Z,101204.56
2022-08-17T15:48:07.039Z,101205.72
2022-08-17T15:50:33.591Z,101214.75
2022-08-17T15:53:01.340Z,101208.47
2022-08-17T15:55:30.133Z,101201.81
2022-08-17T15:57:56.716Z,101197.47
2022-08-17T16:00:28.335Z,101202.16
2022-08-17T16:03:45.399Z,101208.47
2022-08-17T16:05:43.513Z,101199.41
2022-08-17T16:08:11.194Z,101201.81
2022-08-17T16:10:38.121Z,101201.00
2022-08-17T16:13:04.879Z,101198.25
2022-08-17T16:15:39.731Z,101200.22
2022-08-17T16:18:06.305Z,101196.66
2022-08-17T16:20:32.949Z,101199.06
2022-08-17T16:22:59.508Z,101204.91
2022-08-17T16:25:52.122Z,101194.72
2022-08-17T16:28:16.850Z,101205.72
2022-08-17T16:30:43.353Z,101205.72
2022-08-17T16:33:11.764Z,101203.28
2022-08-17T16:35:39.221Z,101214.75
2022-08-17T16:38:07.049Z,101207.66
2022-08-17T16:40:36.112Z,101218.66
2022-08-17T16:43:10.325Z,101215.91
2022-08-17T16:45:40.629Z,101210.41
2022-08-17T16:48:08.161Z,101213.97
2022-08-17T16:50:35.703Z,101207.31
2022-08-17T16:53:08.964Z,101211.22
2022-08-17T16:55:35.926Z,101215.09
2022-08-17T16:58:04.379Z,101218.31
2022-08-17T17:00:33.112Z,101219.47
2022-08-17T17:03:19.462Z,101223.34
2022-08-17T17:06:06.551Z,101237.09
2022-08-17T17:08:43.682Z,101227.19
2022-08-17T17:11:34.078Z,101228.84
2022-08-17T17:14:03.953Z,101220.91
2022-08-17T17:16:40.705Z,101230.47
2022-08-17T17:19:26.328Z,101224.16
2022-08-17T17:22:28.360Z,101230.47
2022-08-17T17:25:06.705Z,101235.16
2022-08-17T17:27:42.674Z,101243.69
2022-08-17T17:30:14.631Z,101238.19
2022-08-17T17:33:23.604Z,101230.78
2022-08-17T17:36:00.715Z,101245.34
2022-08-17T17:38:39.187Z,101247.28
2022-08-17T17:44:01.941Z,101242.91
2022-08-17T17:46:39.969Z,101233.84
2022-08-17T17:49:06.937Z,101242.91
2022-08-17T17:52:10.030Z,101241.78
2022-08-17T17:54:47.862Z,101244.84
2022-08-17T17:57:24.572Z,101248.72
2022-08-17T18:00:09.592Z,101248.72
2022-08-17T18:02:57.522Z,101255.03
2022-08-17T18:05:55.719Z,101256.97
2022-08-17T18:08:35.107Z,101253.09
2022-08-17T18:11:27.007Z,101256.16
2022-08-17T18:17:01.330Z,101256.97
2022-08-17T18:19:30.070Z,101256.66
2022-08-17T18:22:13.084Z,101257.78
2022-08-17T18:24:44.352Z,101264.09
2022-08-17T18:27:29.483Z,101258.13
2022-08-17T18:29:57.907Z,101261.66
2022-08-17T18:32:40.051Z,101266.34
2022-08-17T18:35:09.522Z,101262.47
2022-08-17T18:37:43.467Z,101265.53
2022-08-17T18:40:23.367Z,101261.16
2022-08-17T18:43:05.000Z,101274.91
2022-08-17T18:45:38.206Z,101270.22
2022-08-17T18:48:06.661Z,101263.91
2022-08-17T18:50:41.427Z,101263.59
2022-08-17T18:53:33.214Z,101263.72
2022-08-17T18:56:23.190Z,101265.81
2022-08-17T18:59:05.671Z,101265.75
2022-08-17T19:02:03.318Z,101261.19
2022-08-17T19:04:59.308Z,101267.31
2022-08-17T19:07:28.538Z,101267.97
2022-08-17T19:10:19.900Z,101266.16
2022-08-17T19:13:00.276Z,101278.41
2022-08-17T19:15:42.424Z,101275.16
2022-08-17T19:18:18.569Z,101269.16
2022-08-17T19:20:59.299Z,101284.00
2022-08-17T19:23:26.871Z,101276.41
2022-08-17T19:25:58.336Z,101272.81
2022-08-17T19:28:36.852Z,101276.50
2022-08-17T19:31:13.987Z,101277.63
2022-08-17T19:33:40.672Z,101291.38
2022-08-17T19:36:38.326Z,101298.91
2022-08-17T19:39:26.527Z,101298.78
2022-08-17T19:42:12.587Z,101299.47
2022-08-17T19:44:54.594Z,101300.78
2022-08-17T19:47:54.683Z,101300.13
2022-08-17T19:54:01.474Z,101301.41
2022-08-17T19:56:44.151Z,101307.22
2022-08-17T19:59:10.585Z,101309.16
2022-08-17T20:01:51.564Z,101298.19
2022-08-17T20:04:21.235Z,101304.28
2022-08-17T20:06:53.138Z,101308.66
2022-08-17T20:09:21.464Z,101313.66
2022-08-17T20:11:56.593Z,101311.72
2022-08-17T20:14:36.414Z,101315.06
2022-08-17T20:17:04.355Z,101310.38
2022-08-17T20:19:47.489Z,101324.44
2022-08-17T20:22:30.920Z,101328.28
2022-08-17T20:25:18.052Z,101337.53
2022-08-17T20:28:05.876Z,101334.97
2022-08-17T20:30:37.220Z,101339.06
2022-08-17T20:33:08.271Z,101339.56
2022-08-17T20:35:40.350Z,101341.47
2022-08-17T20:38:31.684Z,101337.03
2022-08-17T20:41:04.421Z,101334.28
2022-08-17T20:43:34.330Z,101339.75
2022-08-17T20:46:35.020Z,101346.88
2022-08-17T20:49:10.918Z,101348.50
2022-08-17T20:52:02.859Z,101337.22
2022-08-17T20:54:41.940Z,101337.22
2022-08-17T20:57:14.045Z,101335.28
2022-08-17T20:59:45.026Z,101323.47
2022-08-17T21:02:20.044Z,101325.09
2022-08-17T21:04:54.541Z,101323.16
2022-08-17T21:07:32.879Z,101320.41
2022-08-17T21:10:28.204Z,101327.03
2022-08-17T21:13:15.530Z,101332.19
2022-08-17T21:15:42.306Z,101319.59
2022-08-17T21:18:23.409Z,101329.47
2022-08-17T21:21:17.641Z,101317.97
2022-08-17T21:24:21.008Z,101318.78
2022-08-17T21:27:24.986Z,101316.84
2022-08-17T21:30:09.494Z,101312.16
2022-08-17T21:32:40.511Z,101310.22
2022-08-17T21:35:12.342Z,101301.50
2022-08-17T21:37:48.061Z,101305.06
2022-08-17T21:40:18.206Z,101316.84
2022-08-17T21:42:53.761Z,101313.78
2022-08-17T21:45:22.906Z,101313.78
2022-08-17T21:48:06.919Z,101314.09
2022-08-17T21:50:35.623Z,101320.09
2022-08-17T21:53:04.072Z,101320.09
2022-08-17T21:55:34.013Z,101330.25
2022-08-17T21:58:22.065Z,101333.81
2022-08-17T22:01:10.008Z,101334.13
2022-08-17T22:03:38.525Z,101336.56
2022-08-17T22:06:22.707Z,101343.50
2022-08-17T22:09:12.458Z,101355.31
2022-08-17T22:11:52.888Z,101355.81
2022-08-17T22:14:52.247Z,101360.47
2022-08-17T22:17:21.603Z,101363.56
2022-08-17T22:19:52.285Z,101367.91
2022-08-17T22:22:35.672Z,101364.38
2022-08-17T22:25:08.479Z,101361.28
2022-08-17T22:27:50.632Z,101369.84
2022-08-17T22:30:28.589Z,101381.97
2022-08-17T22:32:56.490Z,101385.53
2022-08-17T22:35:35.821Z,101387.47
2022-08-17T22:38:31.819Z,101383.91
2022-08-17T22:41:15.144Z,101394.91
2022-08-17T22:43:43.813Z,101392.16
2022-08-17T22:46:12.443Z,101380.03
2022-08-17T22:48:48.619Z,101368.25
2022-08-17T22:51:20.565Z,101364.69
2022-08-17T22:54:13.229Z,101363.84
2022-08-17T22:57:15.283Z,101360.28
2022-08-17T22:59:51.648Z,101355.59
2022-08-17T23:02:24.725Z,101355.94
2022-08-17T23:05:15.766Z,101358.69
2022-08-17T23:07:44.578Z,101380.66
2022-08-17T23:10:12.421Z,101386.16
2022-08-17T23:12:39.744Z,101380.66
2022-08-17T23:15:19.286Z,101380.66
2022-08-17T23:17:46.427Z,101378.72
2022-08-17T23:20:15.324Z,101389.69
2022-08-17T23:22:51.255Z,101390.84
2022-08-17T23:25:29.286Z,101388.09
2022-08-17T23:27:58.430Z,101386.94
2022-08-17T23:30:25.611Z,101376.28
2022-08-17T23:32:54.315Z,101387.28
2022-08-17T23:35:39.666Z,101387.56
2022-08-17T23:38:09.486Z,101380.13
2022-08-17T23:40:36.332Z,101381.78
2022-08-17T23:43:06.010Z,101378.50
2022-08-17T23:45:50.404Z,101373.84
2022-08-17T23:48:35.454Z,101374.16
2022-08-17T23:51:36.329Z,101384.81
2022-08-17T23:54:11.604Z,101371.41
2022-08-17T23:56:50.914Z,101373.84
2022-08-17T23:59:22.448Z,101377.72
